ADDS TAF Data INFO
IDs: Format: Raw Decoded Include METARs

Data at: 0935 UTC 20 Nov 2017

KIWA 200915Z AUTO 13005KT 10SM CLR 09/M06 A3000 RMK AO2

KIWA 200520Z 2006/2106 10005KT P6SM SCT250
  FM202000 26004KT P6SM BKN250
  FM210300 09005KT P6SM BKN250 AMD LTD TO CLD VIS AND WIND TIL 201300